< Cyclone 201129 2012 Season Cyclone 201303 >
Cyclone 201201 (Alenga)
General InformationDetailed Track InformationTrack Information on Google MapsList of All Images || ResourceGoogle EarthGE AnimationAtom FeedGeoJSON
Detalied Best Track Wind (Time Zone = UTC)
Year Month Day Hour Lat. Long. Wind (kt) Gust (kt) Direc. of Major Storm Axis Radius of Major Storm Axis (nm) Radius of Minor Storm Axis (nm) Direc. of Major Gale Axis Radius of Major Gale Axis (nm) Radius of Minor Gale Axis (nm) Image
2011 12 2 00 -5.4 98.4 15 20 symmetric - - symmetric - - Image
2011 12 2 06 -6.9 98.1 15 20 symmetric - - symmetric - - Image
2011 12 2 12 -7.3 97.7 15 20 symmetric - - symmetric - - Image
2011 12 2 18 -7.6 97.4 20 30 symmetric - - symmetric - - Image
2011 12 3 00 -8.1 97.0 20 30 symmetric - - symmetric - - Image
2011 12 3 06 -8.8 96.3 20 30 symmetric - - symmetric - - Image
2011 12 3 12 -9.6 95.3 20 30 symmetric - - symmetric - - Image
2011 12 3 18 -10.4 93.7 20 30 symmetric - - symmetric - - Image
2011 12 4 00 -11.1 92.3 25 35 symmetric - - symmetric - - Image
2011 12 4 06 -11.6 91.0 27 40 symmetric - - symmetric - - Image
2011 12 4 12 -12.0 89.9 27 40 symmetric - - symmetric - - Image
2011 12 4 18 -12.0 88.9 33 45 symmetric - - symmetric - - Image
2011 12 5 00 -12.1 88.1 40 55 symmetric - - symmetric - - Image
2011 12 5 06 -12.1 87.7 42 60 symmetric - - symmetric - - Image
2011 12 5 12 -12.1 87.6 42 60 symmetric - - symmetric - - Image
2011 12 5 18 -12.3 87.6 45 65 symmetric - - symmetric - - Image
2011 12 6 00 -12.6 87.7 40 55 symmetric - - symmetric - - Image
2011 12 6 06 -13.0 87.6 37 50 symmetric - - symmetric - - Image
2011 12 6 12 -13.4 87.9 35 50 symmetric - - symmetric - - Image
2011 12 6 18 -13.6 88.3 35 50 symmetric - - symmetric - - Image
2011 12 7 00 -13.9 89.3 45 65 symmetric - - symmetric - - Image
2011 12 7 06 -14.2 89.9 55 75 symmetric - - symmetric - - Image
2011 12 7 12 -14.7 91.6 60 85 symmetric - - symmetric - - Image
2011 12 7 18 -15.4 93.3 65 90 symmetric - - symmetric - - Image
2011 12 8 00 -16.1 94.9 70 100 symmetric - - symmetric - - Image
2011 12 8 06 -17.2 96.8 75 105 symmetric - - symmetric - - Image
2011 12 8 12 -18.4 98.4 70 100 symmetric - - symmetric - - Image
2011 12 8 18 -19.1 99.7 60 85 symmetric - - symmetric - - Image
2011 12 9 00 -20.5 101.6 40 55 symmetric - - symmetric - - Image
2011 12 9 06 -21.1 102.4 30 45 symmetric - - symmetric - - Image
< Cyclone 201129 2012 Season Cyclone 201303 >

Help